sensor_id;sensor_type;location;lat;lon;timestamp;temperature;humidity
54614;DHT22;40514;52.758;6.360;2022-09-28T00:01:43;10.30;99.90
54614;DHT22;40514;52.758;6.360;2022-09-28T00:04:08;10.30;99.90
54614;DHT22;40514;52.758;6.360;2022-09-28T00:06:34;10.20;99.90
54614;DHT22;40514;52.758;6.360;2022-09-28T00:08:59;10.20;99.90
54614;DHT22;40514;52.758;6.360;2022-09-28T00:11:26;10.20;99.90
54614;DHT22;40514;52.758;6.360;2022-09-28T00:13:53;10.20;99.90
54614;DHT22;40514;52.758;6.360;2022-09-28T00:16:25;10.20;99.90
54614;DHT22;40514;52.758;6.360;2022-09-28T00:18:52;10.10;99.90
54614;DHT22;40514;52.758;6.360;2022-09-28T00:21:19;10.10;99.90
54614;DHT22;40514;52.758;6.360;2022-09-28T00:23:45;10.10;99.90
54614;DHT22;40514;52.758;6.360;2022-09-28T00:26:30;10.00;99.90
54614;DHT22;40514;52.758;6.360;2022-09-28T00:28:57;10.00;99.90
54614;DHT22;40514;52.758;6.360;2022-09-28T00:31:23;10.10;99.90
54614;DHT22;40514;52.758;6.360;2022-09-28T00:33:49;10.00;99.90
54614;DHT22;40514;52.758;6.360;2022-09-28T00:36:15;10.00;99.90
54614;DHT22;40514;52.758;6.360;2022-09-28T00:38:41;10.00;99.90
54614;DHT22;40514;52.758;6.360;2022-09-28T00:41:08;10.00;99.90
54614;DHT22;40514;52.758;6.360;2022-09-28T00:43:34;10.00;99.90
54614;DHT22;40514;52.758;6.360;2022-09-28T00:46:04;10.00;99.90
54614;DHT22;40514;52.758;6.360;2022-09-28T00:48:34;10.00;99.90
54614;DHT22;40514;52.758;6.360;2022-09-28T00:51:04;10.00;99.90
54614;DHT22;40514;52.758;6.360;2022-09-28T00:53:31;10.00;99.90
54614;DHT22;40514;52.758;6.360;2022-09-28T00:56:00;10.00;99.90
54614;DHT22;40514;52.758;6.360;2022-09-28T00:58:28;10.00;99.90
54614;DHT22;40514;52.758;6.360;2022-09-28T01:00:56;10.00;99.90
54614;DHT22;40514;52.758;6.360;2022-09-28T01:03:22;10.00;99.90
54614;DHT22;40514;52.758;6.360;2022-09-28T01:05:48;9.90;99.90
54614;DHT22;40514;52.758;6.360;2022-09-28T01:08:14;9.90;99.90
54614;DHT22;40514;52.758;6.360;2022-09-28T01:10:41;9.90;99.90
54614;DHT22;40514;52.758;6.360;2022-09-28T01:13:08;9.90;99.90
54614;DHT22;40514;52.758;6.360;2022-09-28T01:15:36;9.90;99.90
54614;DHT22;40514;52.758;6.360;2022-09-28T01:28:27;9.80;99.90
54614;DHT22;40514;52.758;6.360;2022-09-28T01:33:19;9.80;99.90
54614;DHT22;40514;52.758;6.360;2022-09-28T01:35:48;9.80;99.90
54614;DHT22;40514;52.758;6.360;2022-09-28T01:38:17;9.80;99.90
54614;DHT22;40514;52.758;6.360;2022-09-28T01:40:43;9.80;99.90
54614;DHT22;40514;52.758;6.360;2022-09-28T01:43:10;9.70;99.90
54614;DHT22;40514;52.758;6.360;2022-09-28T01:45:39;9.70;99.90
54614;DHT22;40514;52.758;6.360;2022-09-28T01:48:06;9.70;99.90
54614;DHT22;40514;52.758;6.360;2022-09-28T01:50:34;9.60;99.90
54614;DHT22;40514;52.758;6.360;2022-09-28T01:53:06;9.60;99.90
54614;DHT22;40514;52.758;6.360;2022-09-28T01:55:35;9.60;99.90
54614;DHT22;40514;52.758;6.360;2022-09-28T02:00:27;9.30;99.90
54614;DHT22;40514;52.758;6.360;2022-09-28T02:05:20;9.60;99.90
54614;DHT22;40514;52.758;6.360;2022-09-28T02:07:54;9.60;99.90
54614;DHT22;40514;52.758;6.360;2022-09-28T02:10:22;9.70;99.90
54614;DHT22;40514;52.758;6.360;2022-09-28T02:12:56;9.70;99.90
54614;DHT22;40514;52.758;6.360;2022-09-28T02:15:25;9.70;99.90
54614;DHT22;40514;52.758;6.360;2022-09-28T02:17:53;9.70;99.90
54614;DHT22;40514;52.758;6.360;2022-09-28T02:20:19;9.70;99.90
54614;DHT22;40514;52.758;6.360;2022-09-28T02:22:49;9.70;99.90
54614;DHT22;40514;52.758;6.360;2022-09-28T02:25:23;9.70;99.90
54614;DHT22;40514;52.758;6.360;2022-09-28T02:28:01;9.80;99.90
54614;DHT22;40514;52.758;6.360;2022-09-28T02:30:30;9.70;99.90
54614;DHT22;40514;52.758;6.360;2022-09-28T02:32:58;9.80;99.90
54614;DHT22;40514;52.758;6.360;2022-09-28T02:35:25;9.70;99.90
54614;DHT22;40514;52.758;6.360;2022-09-28T02:37:50;9.70;99.90
54614;DHT22;40514;52.758;6.360;2022-09-28T02:40:23;9.70;99.90
54614;DHT22;40514;52.758;6.360;2022-09-28T02:47:53;9.70;99.90
54614;DHT22;40514;52.758;6.360;2022-09-28T02:55:19;9.70;99.90
54614;DHT22;40514;52.758;6.360;2022-09-28T03:00:25;9.80;99.90
54614;DHT22;40514;52.758;6.360;2022-09-28T03:02:58;9.80;99.90
54614;DHT22;40514;52.758;6.360;2022-09-28T03:05:35;9.80;99.90
54614;DHT22;40514;52.758;6.360;2022-09-28T03:08:23;9.80;99.90
54614;DHT22;40514;52.758;6.360;2022-09-28T03:11:00;9.80;99.90
54614;DHT22;40514;52.758;6.360;2022-09-28T03:13:26;9.80;99.90
54614;DHT22;40514;52.758;6.360;2022-09-28T03:16:04;9.80;99.90
54614;DHT22;40514;52.758;6.360;2022-09-28T03:18:30;9.90;99.90
54614;DHT22;40514;52.758;6.360;2022-09-28T03:20:56;9.90;99.90
54614;DHT22;40514;52.758;6.360;2022-09-28T03:23:21;9.90;99.90
54614;DHT22;40514;52.758;6.360;2022-09-28T03:25:47;9.90;99.90
54614;DHT22;40514;52.758;6.360;2022-09-28T03:28:12;9.90;99.90
54614;DHT22;40514;52.758;6.360;2022-09-28T03:30:38;9.90;99.90
54614;DHT22;40514;52.758;6.360;2022-09-28T03:33:03;9.90;99.90
54614;DHT22;40514;52.758;6.360;2022-09-28T03:35:29;9.90;99.90
54614;DHT22;40514;52.758;6.360;2022-09-28T03:37:55;9.80;99.90
54614;DHT22;40514;52.758;6.360;2022-09-28T03:40:20;9.80;99.90
54614;DHT22;40514;52.758;6.360;2022-09-28T03:42:46;9.80;99.90
54614;DHT22;40514;52.758;6.360;2022-09-28T03:45:11;9.80;99.90
54614;DHT22;40514;52.758;6.360;2022-09-28T03:47:37;9.80;99.90
54614;DHT22;40514;52.758;6.360;2022-09-28T03:50:02;9.70;99.90
54614;DHT22;40514;52.758;6.360;2022-09-28T03:52:28;9.70;99.90
54614;DHT22;40514;52.758;6.360;2022-09-28T03:54:53;9.70;99.90
54614;DHT22;40514;52.758;6.360;2022-09-28T03:57:19;9.70;99.90
54614;DHT22;40514;52.758;6.360;2022-09-28T03:59:44;9.70;99.90
54614;DHT22;40514;52.758;6.360;2022-09-28T04:02:10;9.70;99.90
54614;DHT22;40514;52.758;6.360;2022-09-28T04:04:35;9.80;99.90
54614;DHT22;40514;52.758;6.360;2022-09-28T04:07:01;9.70;99.90
54614;DHT22;40514;52.758;6.360;2022-09-28T04:09:26;9.70;99.90
54614;DHT22;40514;52.758;6.360;2022-09-28T04:11:51;9.70;99.90
54614;DHT22;40514;52.758;6.360;2022-09-28T04:14:17;9.70;99.90
54614;DHT22;40514;52.758;6.360;2022-09-28T04:16:42;9.70;99.90
54614;DHT22;40514;52.758;6.360;2022-09-28T04:19:08;9.70;99.90
54614;DHT22;40514;52.758;6.360;2022-09-28T04:21:33;9.70;99.90
54614;DHT22;40514;52.758;6.360;2022-09-28T04:23:59;9.70;99.90
54614;DHT22;40514;52.758;6.360;2022-09-28T04:26:25;9.60;99.90
54614;DHT22;40514;52.758;6.360;2022-09-28T04:28:51;9.60;99.90
54614;DHT22;40514;52.758;6.360;2022-09-28T04:31:48;9.70;99.90
54614;DHT22;40514;52.758;6.360;2022-09-28T04:34:16;9.70;99.90
54614;DHT22;40514;52.758;6.360;2022-09-28T04:36:44;9.70;99.90
54614;DHT22;40514;52.758;6.360;2022-09-28T04:39:10;9.70;99.90
54614;DHT22;40514;52.758;6.360;2022-09-28T04:41:35;9.70;99.90
54614;DHT22;40514;52.758;6.360;2022-09-28T04:44:01;9.80;99.90
54614;DHT22;40514;52.758;6.360;2022-09-28T04:46:27;9.80;99.90
54614;DHT22;40514;52.758;6.360;2022-09-28T04:48:52;9.80;99.90
54614;DHT22;40514;52.758;6.360;2022-09-28T04:51:18;9.80;99.90
54614;DHT22;40514;52.758;6.360;2022-09-28T04:53:43;9.80;99.90
54614;DHT22;40514;52.758;6.360;2022-09-28T04:56:10;9.80;99.90
54614;DHT22;40514;52.758;6.360;2022-09-28T04:58:36;9.90;99.90
54614;DHT22;40514;52.758;6.360;2022-09-28T05:01:03;9.90;99.90
54614;DHT22;40514;52.758;6.360;2022-09-28T05:03:30;9.90;99.90
54614;DHT22;40514;52.758;6.360;2022-09-28T05:05:55;9.90;99.90
54614;DHT22;40514;52.758;6.360;2022-09-28T05:08:21;9.90;99.90
54614;DHT22;40514;52.758;6.360;2022-09-28T05:10:46;9.90;99.90
54614;DHT22;40514;52.758;6.360;2022-09-28T05:13:12;9.90;99.90
54614;DHT22;40514;52.758;6.360;2022-09-28T05:15:38;9.90;99.90
54614;DHT22;40514;52.758;6.360;2022-09-28T05:18:04;9.90;99.90
54614;DHT22;40514;52.758;6.360;2022-09-28T05:20:30;9.90;99.90
54614;DHT22;40514;52.758;6.360;2022-09-28T05:22:55;9.90;99.90
54614;DHT22;40514;52.758;6.360;2022-09-28T05:25:21;9.90;99.90
54614;DHT22;40514;52.758;6.360;2022-09-28T05:27:46;9.90;99.90
54614;DHT22;40514;52.758;6.360;2022-09-28T05:30:12;9.90;99.90
54614;DHT22;40514;52.758;6.360;2022-09-28T05:32:41;9.90;99.90
54614;DHT22;40514;52.758;6.360;2022-09-28T05:35:06;9.90;99.90
54614;DHT22;40514;52.758;6.360;2022-09-28T05:37:32;9.90;99.90
54614;DHT22;40514;52.758;6.360;2022-09-28T05:39:58;9.90;99.90
54614;DHT22;40514;52.758;6.360;2022-09-28T05:42:24;9.90;99.90
54614;DHT22;40514;52.758;6.360;2022-09-28T05:44:49;9.90;99.90
54614;DHT22;40514;52.758;6.360;2022-09-28T05:47:15;9.90;99.90
54614;DHT22;40514;52.758;6.360;2022-09-28T05:49:40;9.90;99.90
54614;DHT22;40514;52.758;6.360;2022-09-28T05:52:06;9.90;99.90
54614;DHT22;40514;52.758;6.360;2022-09-28T05:54:32;9.90;99.90
54614;DHT22;40514;52.758;6.360;2022-09-28T05:56:57;9.90;99.90
54614;DHT22;40514;52.758;6.360;2022-09-28T05:59:23;8.90;99.90
54614;DHT22;40514;52.758;6.360;2022-09-28T06:01:48;10.00;99.90
54614;DHT22;40514;52.758;6.360;2022-09-28T06:04:14;10.00;99.90
54614;DHT22;40514;52.758;6.360;2022-09-28T06:06:40;10.00;99.90
54614;DHT22;40514;52.758;6.360;2022-09-28T06:09:06;10.10;99.90
54614;DHT22;40514;52.758;6.360;2022-09-28T06:11:32;10.10;99.90
54614;DHT22;40514;52.758;6.360;2022-09-28T06:13:57;10.10;99.90
54614;DHT22;40514;52.758;6.360;2022-09-28T06:16:23;10.20;99.90
54614;DHT22;40514;52.758;6.360;2022-09-28T06:18:48;10.20;99.90
54614;DHT22;40514;52.758;6.360;2022-09-28T06:21:14;10.20;99.90
54614;DHT22;40514;52.758;6.360;2022-09-28T06:23:39;10.30;99.90
54614;DHT22;40514;52.758;6.360;2022-09-28T06:26:05;10.30;99.90
54614;DHT22;40514;52.758;6.360;2022-09-28T06:28:30;10.30;99.90
54614;DHT22;40514;52.758;6.360;2022-09-28T06:30:58;10.40;99.90
54614;DHT22;40514;52.758;6.360;2022-09-28T06:33:23;10.40;99.90
54614;DHT22;40514;52.758;6.360;2022-09-28T06:35:51;10.40;99.90
54614;DHT22;40514;52.758;6.360;2022-09-28T06:38:17;10.50;99.90
54614;DHT22;40514;52.758;6.360;2022-09-28T06:40:43;10.50;99.90
54614;DHT22;40514;52.758;6.360;2022-09-28T06:43:09;10.60;99.90
54614;DHT22;40514;52.758;6.360;2022-09-28T06:45:35;10.50;99.90
54614;DHT22;40514;52.758;6.360;2022-09-28T06:48:01;10.60;99.90
54614;DHT22;40514;52.758;6.360;2022-09-28T06:50:28;10.60;99.90
54614;DHT22;40514;52.758;6.360;2022-09-28T06:52:56;10.70;99.90
54614;DHT22;40514;52.758;6.360;2022-09-28T06:55:22;10.70;99.90
54614;DHT22;40514;52.758;6.360;2022-09-28T06:58:01;10.80;99.90
54614;DHT22;40514;52.758;6.360;2022-09-28T07:00:27;10.90;99.90
54614;DHT22;40514;52.758;6.360;2022-09-28T07:02:53;11.00;99.90
54614;DHT22;40514;52.758;6.360;2022-09-28T07:05:18;11.00;99.90
54614;DHT22;40514;52.758;6.360;2022-09-28T07:07:48;11.00;99.90
54614;DHT22;40514;52.758;6.360;2022-09-28T07:10:13;11.10;99.90
54614;DHT22;40514;52.758;6.360;2022-09-28T07:12:39;11.10;99.90
54614;DHT22;40514;52.758;6.360;2022-09-28T07:15:05;11.20;99.90
54614;DHT22;40514;52.758;6.360;2022-09-28T07:17:31;11.30;99.90
54614;DHT22;40514;52.758;6.360;2022-09-28T07:19:59;11.40;99.90
54614;DHT22;40514;52.758;6.360;2022-09-28T07:22:24;11.50;99.90
54614;DHT22;40514;52.758;6.360;2022-09-28T07:24:49;11.60;99.90
54614;DHT22;40514;52.758;6.360;2022-09-28T07:27:15;11.70;99.90
54614;DHT22;40514;52.758;6.360;2022-09-28T07:29:41;11.70;99.90
54614;DHT22;40514;52.758;6.360;2022-09-28T07:32:06;12.00;99.90
54614;DHT22;40514;52.758;6.360;2022-09-28T07:34:33;11.70;99.90
54614;DHT22;40514;52.758;6.360;2022-09-28T07:37:04;11.70;99.90
54614;DHT22;40514;52.758;6.360;2022-09-28T07:39:31;11.60;99.90
54614;DHT22;40514;52.758;6.360;2022-09-28T07:42:16;11.60;99.90
54614;DHT22;40514;52.758;6.360;2022-09-28T07:44:42;11.70;99.90
54614;DHT22;40514;52.758;6.360;2022-09-28T07:47:07;11.80;99.90
54614;DHT22;40514;52.758;6.360;2022-09-28T07:49:33;12.00;99.90
54614;DHT22;40514;52.758;6.360;2022-09-28T07:51:59;12.10;99.90
54614;DHT22;40514;52.758;6.360;2022-09-28T07:54:24;12.10;99.90
54614;DHT22;40514;52.758;6.360;2022-09-28T07:56:50;12.30;99.90
54614;DHT22;40514;52.758;6.360;2022-09-28T07:59:15;12.40;99.90
54614;DHT22;40514;52.758;6.360;2022-09-28T08:01:41;12.60;99.90
54614;DHT22;40514;52.758;6.360;2022-09-28T08:04:07;12.80;99.90
54614;DHT22;40514;52.758;6.360;2022-09-28T08:06:32;12.90;99.90
54614;DHT22;40514;52.758;6.360;2022-09-28T08:08:58;12.90;99.90
54614;DHT22;40514;52.758;6.360;2022-09-28T08:11:26;13.10;99.90
54614;DHT22;40514;52.758;6.360;2022-09-28T08:13:51;13.00;99.90
54614;DHT22;40514;52.758;6.360;2022-09-28T08:16:19;13.00;99.90
54614;DHT22;40514;52.758;6.360;2022-09-28T08:18:47;13.10;99.90
54614;DHT22;40514;52.758;6.360;2022-09-28T08:21:12;13.30;99.90
54614;DHT22;40514;52.758;6.360;2022-09-28T08:23:57;13.60;99.90
54614;DHT22;40514;52.758;6.360;2022-09-28T08:26:23;14.00;99.90
54614;DHT22;40514;52.758;6.360;2022-09-28T08:28:48;14.20;99.90
54614;DHT22;40514;52.758;6.360;2022-09-28T08:31:14;14.30;99.90
54614;DHT22;40514;52.758;6.360;2022-09-28T08:33:40;14.30;99.90
54614;DHT22;40514;52.758;6.360;2022-09-28T08:36:07;14.40;99.90
54614;DHT22;40514;52.758;6.360;2022-09-28T08:38:33;14.50;99.90
54614;DHT22;40514;52.758;6.360;2022-09-28T08:46:13;15.70;99.90
54614;DHT22;40514;52.758;6.360;2022-09-28T08:48:50;16.60;99.90
54614;DHT22;40514;52.758;6.360;2022-09-28T08:51:19;17.60;99.90
54614;DHT22;40514;52.758;6.360;2022-09-28T08:53:49;18.60;99.90
54614;DHT22;40514;52.758;6.360;2022-09-28T08:56:34;19.60;99.90
54614;DHT22;40514;52.758;6.360;2022-09-28T08:59:05;20.30;98.30
54614;DHT22;40514;52.758;6.360;2022-09-28T09:01:37;20.80;95.30
54614;DHT22;40514;52.758;6.360;2022-09-28T09:04:03;20.90;94.20
54614;DHT22;40514;52.758;6.360;2022-09-28T09:19:34;19.10;92.80
54614;DHT22;40514;52.758;6.360;2022-09-28T09:22:09;18.40;94.50
54614;DHT22;40514;52.758;6.360;2022-09-28T09:25:02;18.20;96.20
54614;DHT22;40514;52.758;6.360;2022-09-28T09:30:02;17.90;97.10
54614;DHT22;40514;52.758;6.360;2022-09-28T09:32:41;17.60;97.20
54614;DHT22;40514;52.758;6.360;2022-09-28T09:35:19;17.40;98.00
54614;DHT22;40514;52.758;6.360;2022-09-28T09:48:23;18.80;97.80
54614;DHT22;40514;52.758;6.360;2022-09-28T09:50:55;19.40;97.80
54614;DHT22;40514;52.758;6.360;2022-09-28T09:53:23;20.20;95.00
54614;DHT22;40514;52.758;6.360;2022-09-28T09:55:52;20.90;91.60
54614;DHT22;40514;52.758;6.360;2022-09-28T09:58:28;21.30;90.10
54614;DHT22;40514;52.758;6.360;2022-09-28T10:00:57;21.60;88.30
54614;DHT22;40514;52.758;6.360;2022-09-28T10:03:24;22.30;87.70
54614;DHT22;40514;52.758;6.360;2022-09-28T10:05:58;23.10;84.50
54614;DHT22;40514;52.758;6.360;2022-09-28T10:08:24;23.20;79.70
54614;DHT22;40514;52.758;6.360;2022-09-28T10:13:36;22.00;77.30
54614;DHT22;40514;52.758;6.360;2022-09-28T10:16:01;21.50;80.80
54614;DHT22;40514;52.758;6.360;2022-09-28T10:18:27;21.50;81.70
54614;DHT22;40514;52.758;6.360;2022-09-28T10:20:52;22.20;83.00
54614;DHT22;40514;52.758;6.360;2022-09-28T10:23:19;22.60;79.50
54614;DHT22;40514;52.758;6.360;2022-09-28T10:25:48;22.60;78.40
54614;DHT22;40514;52.758;6.360;2022-09-28T10:28:17;22.60;75.80
54614;DHT22;40514;52.758;6.360;2022-09-28T10:30:43;22.90;75.70
54614;DHT22;40514;52.758;6.360;2022-09-28T10:33:28;22.70;74.20
54614;DHT22;40514;52.758;6.360;2022-09-28T10:35:54;22.30;74.40
54614;DHT22;40514;52.758;6.360;2022-09-28T10:38:20;22.20;76.70
54614;DHT22;40514;52.758;6.360;2022-09-28T10:40:47;22.50;74.90
54614;DHT22;40514;52.758;6.360;2022-09-28T10:43:17;22.40;72.20
54614;DHT22;40514;52.758;6.360;2022-09-28T10:45:45;22.50;72.10
54614;DHT22;40514;52.758;6.360;2022-09-28T10:48:18;23.20;72.80
54614;DHT22;40514;52.758;6.360;2022-09-28T10:50:55;24.40;71.60
54614;DHT22;40514;52.758;6.360;2022-09-28T10:53:22;25.60;68.40
54614;DHT22;40514;52.758;6.360;2022-09-28T10:56:02;26.70;64.60
54614;DHT22;40514;52.758;6.360;2022-09-28T10:58:36;26.90;58.90
54614;DHT22;40514;52.758;6.360;2022-09-28T11:01:12;25.60;60.20
54614;DHT22;40514;52.758;6.360;2022-09-28T11:03:54;24.50;62.30
54614;DHT22;40514;52.758;6.360;2022-09-28T11:06:28;23.50;64.20
54614;DHT22;40514;52.758;6.360;2022-09-28T11:08:59;22.70;66.40
54614;DHT22;40514;52.758;6.360;2022-09-28T11:11:25;22.10;69.00
54614;DHT22;40514;52.758;6.360;2022-09-28T11:13:58;21.90;68.90
54614;DHT22;40514;52.758;6.360;2022-09-28T11:18:51;21.10;71.00
54614;DHT22;40514;52.758;6.360;2022-09-28T11:21:18;20.50;76.30
54614;DHT22;40514;52.758;6.360;2022-09-28T11:23:56;19.80;77.30
54614;DHT22;40514;52.758;6.360;2022-09-28T11:26:22;19.40;88.00
54614;DHT22;40514;52.758;6.360;2022-09-28T11:28:51;19.00;96.10
54614;DHT22;40514;52.758;6.360;2022-09-28T11:31:22;18.70;98.00
54614;DHT22;40514;52.758;6.360;2022-09-28T11:33:49;18.40;99.40
54614;DHT22;40514;52.758;6.360;2022-09-28T11:46:14;17.30;99.90
54614;DHT22;40514;52.758;6.360;2022-09-28T11:48:48;17.20;99.90
54614;DHT22;40514;52.758;6.360;2022-09-28T11:51:16;17.20;99.90
54614;DHT22;40514;52.758;6.360;2022-09-28T11:53:50;17.10;99.90
54614;DHT22;40514;52.758;6.360;2022-09-28T11:58:43;17.40;99.90
54614;DHT22;40514;52.758;6.360;2022-09-28T12:01:24;17.50;99.50
54614;DHT22;40514;52.758;6.360;2022-09-28T12:06:45;19.40;99.80
54614;DHT22;40514;52.758;6.360;2022-09-28T12:09:21;21.30;97.00
54614;DHT22;40514;52.758;6.360;2022-09-28T12:11:50;22.40;93.30
54614;DHT22;40514;52.758;6.360;2022-09-28T12:14:19;23.30;82.10
54614;DHT22;40514;52.758;6.360;2022-09-28T12:16:48;23.50;76.90
54614;DHT22;40514;52.758;6.360;2022-09-28T12:19:19;24.00;74.20
54614;DHT22;40514;52.758;6.360;2022-09-28T12:21:57;24.60;71.90
54614;DHT22;40514;52.758;6.360;2022-09-28T12:24:28;24.20;66.40
54614;DHT22;40514;52.758;6.360;2022-09-28T12:26:57;23.40;68.40
54614;DHT22;40514;52.758;6.360;2022-09-28T12:29:25;22.80;70.60
54614;DHT22;40514;52.758;6.360;2022-09-28T12:31:57;22.30;70.40
54614;DHT22;40514;52.758;6.360;2022-09-28T12:34:25;21.70;76.00
54614;DHT22;40514;52.758;6.360;2022-09-28T12:36:57;21.10;79.20
54614;DHT22;40514;52.758;6.360;2022-09-28T12:39:31;20.10;90.30
54614;DHT22;40514;52.758;6.360;2022-09-28T12:42:03;19.30;97.20
54614;DHT22;40514;52.758;6.360;2022-09-28T12:52:39;17.60;99.90
54614;DHT22;40514;52.758;6.360;2022-09-28T12:55:15;17.20;99.90
54614;DHT22;40514;52.758;6.360;2022-09-28T13:00:17;16.80;99.90
54614;DHT22;40514;52.758;6.360;2022-09-28T13:13:16;16.20;99.90
54614;DHT22;40514;52.758;6.360;2022-09-28T13:23:39;18.00;99.90
54614;DHT22;40514;52.758;6.360;2022-09-28T13:28:38;17.70;99.90
54614;DHT22;40514;52.758;6.360;2022-09-28T13:31:04;17.60;99.90
54614;DHT22;40514;52.758;6.360;2022-09-28T13:33:32;17.60;99.90
54614;DHT22;40514;52.758;6.360;2022-09-28T13:36:00;17.50;99.90
54614;DHT22;40514;52.758;6.360;2022-09-28T13:38:38;17.30;99.90
54614;DHT22;40514;52.758;6.360;2022-09-28T13:41:08;17.20;99.90
54614;DHT22;40514;52.758;6.360;2022-09-28T13:46:05;16.90;99.90
54614;DHT22;40514;52.758;6.360;2022-09-28T13:48:42;16.80;99.90
54614;DHT22;40514;52.758;6.360;2022-09-28T13:51:22;16.60;99.90
54614;DHT22;40514;52.758;6.360;2022-09-28T13:53:57;16.60;99.90
54614;DHT22;40514;52.758;6.360;2022-09-28T14:01:52;16.40;99.90
54614;DHT22;40514;52.758;6.360;2022-09-28T14:04:23;16.30;99.90
54614;DHT22;40514;52.758;6.360;2022-09-28T14:06:53;16.20;99.90
54614;DHT22;40514;52.758;6.360;2022-09-28T14:12:27;16.20;99.90
54614;DHT22;40514;52.758;6.360;2022-09-28T14:14:53;16.20;99.90
54614;DHT22;40514;52.758;6.360;2022-09-28T14:19:49;16.10;99.90
54614;DHT22;40514;52.758;6.360;2022-09-28T14:22:24;16.10;99.90
54614;DHT22;40514;52.758;6.360;2022-09-28T14:25:01;16.10;99.90
54614;DHT22;40514;52.758;6.360;2022-09-28T14:32:39;16.20;99.90
54614;DHT22;40514;52.758;6.360;2022-09-28T14:35:06;16.20;99.90
54614;DHT22;40514;52.758;6.360;2022-09-28T14:37:38;16.20;99.90
54614;DHT22;40514;52.758;6.360;2022-09-28T14:40:26;16.20;99.90
54614;DHT22;40514;52.758;6.360;2022-09-28T14:43:26;16.10;99.90
54614;DHT22;40514;52.758;6.360;2022-09-28T14:46:53;16.10;99.90
54614;DHT22;40514;52.758;6.360;2022-09-28T14:53:58;15.70;99.90
54614;DHT22;40514;52.758;6.360;2022-09-28T14:56:25;15.60;99.90
54614;DHT22;40514;52.758;6.360;2022-09-28T14:58:53;15.50;99.90
54614;DHT22;40514;52.758;6.360;2022-09-28T15:01:20;15.50;99.90
54614;DHT22;40514;52.758;6.360;2022-09-28T15:03:47;15.40;99.90
54614;DHT22;40514;52.758;6.360;2022-09-28T15:06:13;15.40;99.90
54614;DHT22;40514;52.758;6.360;2022-09-28T15:08:40;15.40;99.90
54614;DHT22;40514;52.758;6.360;2022-09-28T15:11:09;15.30;99.90
54614;DHT22;40514;52.758;6.360;2022-09-28T15:13:36;15.30;99.90
54614;DHT22;40514;52.758;6.360;2022-09-28T15:16:06;15.40;99.90
54614;DHT22;40514;52.758;6.360;2022-09-28T15:20:59;15.50;99.90
54614;DHT22;40514;52.758;6.360;2022-09-28T15:23:34;15.60;99.90
54614;DHT22;40514;52.758;6.360;2022-09-28T15:26:01;15.80;99.90
54614;DHT22;40514;52.758;6.360;2022-09-28T15:28:26;15.90;99.90
54614;DHT22;40514;52.758;6.360;2022-09-28T15:31:02;16.00;99.90
54614;DHT22;40514;52.758;6.360;2022-09-28T15:33:29;16.00;99.90
54614;DHT22;40514;52.758;6.360;2022-09-28T15:36:15;16.00;99.90
54614;DHT22;40514;52.758;6.360;2022-09-28T15:38:44;16.00;99.90
54614;DHT22;40514;52.758;6.360;2022-09-28T15:41:11;16.00;99.90
54614;DHT22;40514;52.758;6.360;2022-09-28T15:43:37;16.00;99.90
54614;DHT22;40514;52.758;6.360;2022-09-28T15:46:13;15.90;99.90
54614;DHT22;40514;52.758;6.360;2022-09-28T15:51:08;15.70;99.90
54614;DHT22;40514;52.758;6.360;2022-09-28T15:53:41;15.60;99.90
54614;DHT22;40514;52.758;6.360;2022-09-28T15:56:07;15.40;99.90
54614;DHT22;40514;52.758;6.360;2022-09-28T15:58:35;15.40;99.90
54614;DHT22;40514;52.758;6.360;2022-09-28T16:03:45;15.20;99.90
54614;DHT22;40514;52.758;6.360;2022-09-28T16:06:11;15.20;99.90
54614;DHT22;40514;52.758;6.360;2022-09-28T16:13:35;15.00;99.90
54614;DHT22;40514;52.758;6.360;2022-09-28T16:16:01;15.00;99.90
54614;DHT22;40514;52.758;6.360;2022-09-28T16:18:28;14.90;99.90
54614;DHT22;40514;52.758;6.360;2022-09-28T16:20:55;14.80;99.90
54614;DHT22;40514;52.758;6.360;2022-09-28T16:23:25;14.80;99.90
54614;DHT22;40514;52.758;6.360;2022-09-28T16:25:56;14.80;99.90
54614;DHT22;40514;52.758;6.360;2022-09-28T16:28:24;14.80;99.90
54614;DHT22;40514;52.758;6.360;2022-09-28T16:31:25;14.80;99.90
54614;DHT22;40514;52.758;6.360;2022-09-28T16:33:43;14.80;99.90
54614;DHT22;40514;52.758;6.360;2022-09-28T16:36:10;14.70;99.90
54614;DHT22;40514;52.758;6.360;2022-09-28T16:38:37;14.70;99.90
54614;DHT22;40514;52.758;6.360;2022-09-28T16:41:03;14.60;99.90
54614;DHT22;40514;52.758;6.360;2022-09-28T16:43:29;14.60;99.90
54614;DHT22;40514;52.758;6.360;2022-09-28T16:45:57;14.50;99.90
54614;DHT22;40514;52.758;6.360;2022-09-28T16:48:24;14.50;99.90
54614;DHT22;40514;52.758;6.360;2022-09-28T16:50:50;14.50;99.90
54614;DHT22;40514;52.758;6.360;2022-09-28T16:53:16;14.40;99.90
54614;DHT22;40514;52.758;6.360;2022-09-28T16:56:01;14.30;99.90
54614;DHT22;40514;52.758;6.360;2022-09-28T16:58:27;14.20;99.90
54614;DHT22;40514;52.758;6.360;2022-09-28T17:00:59;14.20;99.90
54614;DHT22;40514;52.758;6.360;2022-09-28T17:03:25;14.20;99.90
54614;DHT22;40514;52.758;6.360;2022-09-28T17:05:51;14.10;99.90
54614;DHT22;40514;52.758;6.360;2022-09-28T17:08:17;14.10;99.90
54614;DHT22;40514;52.758;6.360;2022-09-28T17:10:45;14.10;99.90
54614;DHT22;40514;52.758;6.360;2022-09-28T17:13:11;14.00;99.90
54614;DHT22;40514;52.758;6.360;2022-09-28T17:15:39;14.00;99.90
54614;DHT22;40514;52.758;6.360;2022-09-28T17:18:05;13.90;99.90
54614;DHT22;40514;52.758;6.360;2022-09-28T17:20:30;13.80;99.90
54614;DHT22;40514;52.758;6.360;2022-09-28T17:22:56;13.80;99.90
54614;DHT22;40514;52.758;6.360;2022-09-28T17:25:22;13.70;99.90
54614;DHT22;40514;52.758;6.360;2022-09-28T17:27:48;13.70;99.90
54614;DHT22;40514;52.758;6.360;2022-09-28T17:30:14;13.60;99.90
54614;DHT22;40514;52.758;6.360;2022-09-28T17:32:40;13.60;99.90
54614;DHT22;40514;52.758;6.360;2022-09-28T17:35:12;13.50;99.90
54614;DHT22;40514;52.758;6.360;2022-09-28T17:37:37;13.40;99.90
54614;DHT22;40514;52.758;6.360;2022-09-28T17:42:46;13.30;99.90
54614;DHT22;40514;52.758;6.360;2022-09-28T17:45:13;13.30;99.90
54614;DHT22;40514;52.758;6.360;2022-09-28T17:47:39;13.20;99.90
54614;DHT22;40514;52.758;6.360;2022-09-28T17:50:11;13.20;99.90
54614;DHT22;40514;52.758;6.360;2022-09-28T17:52:38;13.10;99.90
54614;DHT22;40514;52.758;6.360;2022-09-28T17:55:03;13.10;99.90
54614;DHT22;40514;52.758;6.360;2022-09-28T17:57:29;13.00;99.90
54614;DHT22;40514;52.758;6.360;2022-09-28T17:59:54;12.90;99.90
54614;DHT22;40514;52.758;6.360;2022-09-28T18:02:20;12.90;99.90
54614;DHT22;40514;52.758;6.360;2022-09-28T18:04:45;12.80;99.90
54614;DHT22;40514;52.758;6.360;2022-09-28T18:07:10;12.80;99.90
54614;DHT22;40514;52.758;6.360;2022-09-28T18:09:36;12.80;99.90
54614;DHT22;40514;52.758;6.360;2022-09-28T18:12:02;12.70;99.90
54614;DHT22;40514;52.758;6.360;2022-09-28T18:14:28;12.60;99.90
54614;DHT22;40514;52.758;6.360;2022-09-28T18:16:54;12.60;99.90